createdAt,value
2023-04-16T00:00:37.669Z,100811.47
2023-04-16T00:03:08.046Z,100815.75
2023-04-16T00:05:35.877Z,100821.09
2023-04-16T00:08:03.283Z,100816.59
2023-04-16T00:10:32.558Z,100824.59
2023-04-16T00:12:59.147Z,100829.00
2023-04-16T00:15:25.910Z,100824.75
2023-04-16T00:17:52.827Z,100825.59
2023-04-16T00:20:20.473Z,100825.59
2023-04-16T00:22:47.131Z,100832.56
2023-04-16T00:25:14.141Z,100826.44
2023-04-16T00:27:40.749Z,100826.47
2023-04-16T00:30:07.894Z,100829.16
2023-04-16T00:32:34.652Z,100831.78
2023-04-16T00:35:01.310Z,100823.06
2023-04-16T00:37:27.997Z,100832.69
2023-04-16T00:39:54.680Z,100832.72
2023-04-16T00:42:21.287Z,100830.13
2023-04-16T00:44:47.921Z,100830.13
2023-04-16T00:47:14.629Z,100838.94
2023-04-16T00:49:41.426Z,100832.78
2023-04-16T00:52:08.058Z,100829.41
2023-04-16T00:54:34.819Z,100831.09
2023-04-16T00:57:02.286Z,100832.06
2023-04-16T00:59:29.569Z,100832.00
2023-04-16T01:01:56.299Z,100831.16
2023-04-16T01:04:23.214Z,100827.44
2023-04-16T01:06:49.938Z,100826.63
2023-04-16T01:09:16.954Z,100832.03
2023-04-16T01:11:43.601Z,100833.78
2023-04-16T01:14:11.160Z,100835.59
2023-04-16T01:16:38.446Z,100834.78
2023-04-16T01:19:05.306Z,100839.13
2023-04-16T01:21:32.428Z,100838.16
2023-04-16T01:24:03.658Z,100837.28
2023-04-16T01:26:31.102Z,100846.06
2023-04-16T01:28:57.939Z,100845.19
2023-04-16T01:31:24.808Z,100857.50
2023-04-16T01:33:51.513Z,100848.72
2023-04-16T01:36:18.288Z,100850.56
2023-04-16T01:38:44.954Z,100858.41
2023-04-16T01:41:11.743Z,100854.06
2023-04-16T01:43:40.169Z,100850.56
2023-04-16T01:46:27.525Z,100856.72
2023-04-16T01:48:55.014Z,100857.53
2023-04-16T01:51:22.144Z,100856.69
2023-04-16T01:53:49.871Z,100857.56
2023-04-16T01:56:16.956Z,100855.84
2023-04-16T01:58:43.680Z,100860.19
2023-04-16T02:01:13.625Z,100863.72
2023-04-16T02:03:43.130Z,100863.72
2023-04-16T02:06:09.898Z,100862.84
2023-04-16T02:08:36.570Z,100868.88
2023-04-16T02:11:03.259Z,100868.06
2023-04-16T02:13:29.913Z,100867.16
2023-04-16T02:15:56.555Z,100879.50
2023-04-16T02:18:23.216Z,100870.72
2023-04-16T02:20:49.914Z,100874.28
2023-04-16T02:23:17.447Z,100875.16
2023-04-16T02:25:47.750Z,100873.41
2023-04-16T02:28:16.834Z,100881.31
2023-04-16T02:30:45.451Z,100888.28
2023-04-16T02:33:12.468Z,100881.25
2023-04-16T02:35:40.132Z,100881.28
2023-04-16T02:38:07.609Z,100884.78
2023-04-16T02:40:35.036Z,100883.91
2023-04-16T02:43:02.012Z,100885.63
2023-04-16T02:45:28.788Z,100877.81
2023-04-16T02:47:55.455Z,100887.47
2023-04-16T02:50:22.186Z,100890.97
2023-04-16T02:52:48.937Z,100883.06
2023-04-16T02:55:16.102Z,100887.41
2023-04-16T02:57:42.789Z,100890.94
2023-04-16T03:00:10.111Z,100887.44
2023-04-16T03:02:36.871Z,100886.56
2023-04-16T03:05:04.189Z,100888.31
2023-04-16T03:07:30.942Z,100883.94
2023-04-16T03:09:57.574Z,100897.06
2023-04-16T03:12:24.256Z,100892.66
2023-04-16T03:14:52.676Z,100893.59
2023-04-16T03:17:19.454Z,100897.09
2023-04-16T03:19:46.232Z,100892.69
2023-04-16T03:22:12.976Z,100908.47
2023-04-16T03:24:39.719Z,100897.97
2023-04-16T03:27:06.384Z,100899.75
2023-04-16T03:29:33.049Z,100895.34
2023-04-16T03:31:59.656Z,100890.97
2023-04-16T03:34:26.655Z,100897.13
2023-04-16T03:36:53.229Z,100888.31
2023-04-16T03:39:19.839Z,100894.41
2023-04-16T03:41:47.495Z,100897.09
2023-04-16T03:44:14.102Z,100900.63
2023-04-16T03:46:40.966Z,100898.81
2023-04-16T03:49:08.235Z,100899.72
2023-04-16T03:51:35.160Z,100909.41
2023-04-16T03:54:01.895Z,100909.38
2023-04-16T03:56:28.523Z,100912.91
2023-04-16T03:58:55.155Z,100911.13
2023-04-16T04:01:21.763Z,100911.13
2023-04-16T04:03:48.600Z,100915.50
2023-04-16T04:06:15.362Z,100912.03
2023-04-16T04:08:42.003Z,100911.09
2023-04-16T04:11:08.631Z,100921.66
2023-04-16T04:13:35.362Z,100926.03
2023-04-16T04:16:02.132Z,100927.78
2023-04-16T04:18:28.904Z,100926.91
2023-04-16T04:20:55.544Z,100930.44
2023-04-16T04:23:22.159Z,100936.56
2023-04-16T04:25:49.149Z,100925.97
2023-04-16T04:28:16.108Z,100934.81
2023-04-16T04:30:42.715Z,100931.34
2023-04-16T04:33:09.426Z,100935.69
2023-04-16T04:35:36.031Z,100934.84
2023-04-16T04:38:03.160Z,100934.84
2023-04-16T04:40:29.781Z,100939.19
2023-04-16T04:42:56.591Z,100937.44
2023-04-16T04:45:25.658Z,100941.81
2023-04-16T04:47:53.008Z,100944.44
2023-04-16T04:50:19.789Z,100942.69
2023-04-16T04:52:46.397Z,100949.69
2023-04-16T04:55:15.772Z,100954.06
2023-04-16T04:57:42.708Z,100953.22
2023-04-16T05:00:09.804Z,100947.97
2023-04-16T05:02:36.662Z,100954.13
2023-04-16T05:05:04.380Z,100958.47
2023-04-16T05:07:33.736Z,100957.59
2023-04-16T05:10:00.796Z,100962.84
2023-04-16T05:12:27.459Z,100964.63
2023-04-16T05:14:54.183Z,100971.63
2023-04-16T05:17:20.966Z,100964.50
2023-04-16T05:19:47.772Z,100970.69
2023-04-16T05:22:14.462Z,100972.50
2023-04-16T05:24:41.132Z,100975.13
2023-04-16T05:27:07.827Z,100979.44
2023-04-16T05:29:34.462Z,100982.03
2023-04-16T05:32:01.954Z,100976.81
2023-04-16T05:34:28.704Z,100980.31
2023-04-16T05:36:55.402Z,100984.72
2023-04-16T05:39:22.117Z,100983.81
2023-04-16T05:41:48.877Z,100997.84
2023-04-16T05:44:18.116Z,100986.38
2023-04-16T05:46:44.906Z,100989.00
2023-04-16T05:49:11.910Z,100996.91
2023-04-16T05:51:38.772Z,100992.50
2023-04-16T05:54:05.683Z,101003.00
2023-04-16T05:56:32.339Z,100997.75
2023-04-16T05:58:59.040Z,100998.66
2023-04-16T06:01:25.895Z,101000.38
2023-04-16T06:03:52.758Z,101001.25
2023-04-16T06:06:19.534Z,101008.25
2023-04-16T06:08:46.415Z,101005.66
2023-04-16T06:11:13.119Z,101005.66
2023-04-16T06:13:39.915Z,101011.84
2023-04-16T06:16:06.768Z,101014.41
2023-04-16T06:18:33.438Z,101013.47
2023-04-16T06:21:00.349Z,101020.53
2023-04-16T06:23:27.145Z,101022.31
2023-04-16T06:25:54.365Z,101022.31
2023-04-16T06:28:21.118Z,101026.69
2023-04-16T06:30:48.695Z,101031.94
2023-04-16T06:33:15.427Z,101046.88
2023-04-16T06:35:42.232Z,101040.69
2023-04-16T06:38:08.949Z,101038.09
2023-04-16T06:40:37.550Z,101039.81
2023-04-16T06:43:04.244Z,101040.69
2023-04-16T06:45:30.970Z,101039.84
2023-04-16T06:47:59.107Z,101053.84
2023-04-16T06:50:26.964Z,101049.44
2023-04-16T06:52:55.572Z,101047.69
2023-04-16T06:55:22.586Z,101047.72
2023-04-16T06:57:49.323Z,101040.75
2023-04-16T07:00:16.345Z,101057.38
2023-04-16T07:02:43.240Z,101061.78
2023-04-16T07:05:10.139Z,101050.38
2023-04-16T07:07:37.038Z,101057.38
2023-04-16T07:10:05.480Z,101052.09
2023-04-16T07:12:33.157Z,101053.84
2023-04-16T07:15:00.332Z,101061.75
2023-04-16T07:17:27.302Z,101064.41
2023-04-16T07:19:54.079Z,101063.50
2023-04-16T07:22:21.103Z,101063.47
2023-04-16T07:24:48.012Z,101065.25
2023-04-16T07:27:14.924Z,101070.50
2023-04-16T07:29:41.727Z,101059.97
2023-04-16T07:32:08.769Z,101066.09
2023-04-16T07:34:35.670Z,101064.31
2023-04-16T07:37:02.452Z,101062.50
2023-04-16T07:39:29.175Z,101072.16
2023-04-16T07:41:56.089Z,101072.09
2023-04-16T07:44:22.825Z,101082.63
2023-04-16T07:46:49.694Z,101082.63
2023-04-16T07:49:16.548Z,101079.97
2023-04-16T07:51:43.560Z,101092.38
2023-04-16T07:54:11.156Z,101087.97
2023-04-16T07:56:37.918Z,101088.78
2023-04-16T07:59:18.310Z,101092.28
2023-04-16T08:01:48.531Z,101096.66
2023-04-16T08:04:17.541Z,101091.38
2023-04-16T08:06:44.393Z,101094.94
2023-04-16T08:09:11.284Z,101092.28
2023-04-16T08:11:38.324Z,101107.19
2023-04-16T08:14:05.073Z,101104.50
2023-04-16T08:16:31.853Z,101105.38
2023-04-16T08:19:01.003Z,101107.94
2023-04-16T08:21:28.284Z,101107.94
2023-04-16T08:23:55.000Z,101112.31
2023-04-16T08:26:21.764Z,101109.66
2023-04-16T08:28:48.623Z,101115.81
2023-04-16T08:31:15.376Z,101115.78
2023-04-16T08:33:42.223Z,101105.22
2023-04-16T08:36:09.232Z,101110.41
2023-04-16T08:38:36.029Z,101123.31
2023-04-16T08:41:03.679Z,101122.47
2023-04-16T08:43:33.753Z,101125.16
2023-04-16T08:46:01.268Z,101125.16
2023-04-16T08:48:33.686Z,101133.78
2023-04-16T08:51:02.420Z,101132.03
2023-04-16T08:53:33.333Z,101132.78
2023-04-16T08:56:04.863Z,101129.19
2023-04-16T08:58:34.706Z,101128.25
2023-04-16T09:01:03.919Z,101127.31
2023-04-16T09:03:36.439Z,101127.03
2023-04-16T09:06:04.570Z,101128.75
2023-04-16T09:08:32.350Z,101131.19
2023-04-16T09:10:59.664Z,101136.56
2023-04-16T09:13:27.061Z,101140.88
2023-04-16T09:15:54.787Z,101141.84
2023-04-16T09:18:21.713Z,101141.91
2023-04-16T09:20:49.781Z,101149.72
2023-04-16T09:23:16.645Z,101149.88
2023-04-16T09:25:45.309Z,101152.66
2023-04-16T09:28:13.858Z,101153.56
2023-04-16T09:30:41.146Z,101156.03
2023-04-16T09:33:17.856Z,101152.53
2023-04-16T09:35:46.697Z,101157.84
2023-04-16T09:38:13.544Z,101159.81
2023-04-16T09:40:40.496Z,101152.66
2023-04-16T09:43:18.044Z,101156.88
2023-04-16T09:45:52.367Z,101155.09
2023-04-16T09:48:32.413Z,101155.91
2023-04-16T09:51:00.542Z,101152.38
2023-04-16T09:53:29.066Z,101157.75
2023-04-16T09:56:00.772Z,101155.94
2023-04-16T09:58:29.796Z,101164.03
2023-04-16T10:01:03.753Z,101166.69
2023-04-16T10:03:32.138Z,101166.63
2023-04-16T10:06:14.734Z,101168.19
2023-04-16T10:08:58.524Z,101168.09
2023-04-16T10:11:25.931Z,101170.00
2023-04-16T10:13:52.754Z,101180.69
2023-04-16T10:16:19.644Z,101176.31
2023-04-16T10:18:47.284Z,101186.06
2023-04-16T10:21:16.756Z,101182.69
2023-04-16T10:23:44.018Z,101189.63
2023-04-16T10:26:10.927Z,101193.19
2023-04-16T10:28:37.682Z,101190.41
2023-04-16T10:31:07.463Z,101195.84
2023-04-16T10:33:40.822Z,101193.19
2023-04-16T10:36:08.099Z,101200.97
2023-04-16T10:38:35.453Z,101204.66
2023-04-16T10:41:03.635Z,101202.91
2023-04-16T10:43:31.715Z,101199.22
2023-04-16T10:46:18.005Z,101211.63
2023-04-16T10:51:34.922Z,101209.13
2023-04-16T10:54:20.086Z,101200.22
2023-04-16T10:56:47.430Z,101212.63
2023-04-16T10:59:18.424Z,101209.13
2023-04-16T11:02:00.183Z,101206.38
2023-04-16T11:04:29.974Z,101217.78
2023-04-16T11:07:06.201Z,101209.94
2023-04-16T11:09:53.673Z,101209.91
2023-04-16T11:12:44.957Z,101208.91
2023-04-16T11:15:16.200Z,101210.63
2023-04-16T11:17:43.683Z,101210.66
2023-04-16T11:20:19.097Z,101211.41
2023-04-16T11:22:48.135Z,101212.09
2023-04-16T11:25:20.850Z,101210.34
2023-04-16T11:27:47.634Z,101214.56
2023-04-16T11:30:14.520Z,101224.13
2023-04-16T11:32:41.506Z,101222.91
2023-04-16T11:35:16.675Z,101218.38
2023-04-16T11:37:44.005Z,101222.63
2023-04-16T11:40:11.786Z,101217.31
2023-04-16T11:42:44.773Z,101217.06
2023-04-16T11:45:12.421Z,101221.56
2023-04-16T11:47:52.799Z,101222.44
2023-04-16T11:50:29.800Z,101235.03
2023-04-16T11:53:03.957Z,101221.63
2023-04-16T11:55:31.163Z,101237.06
2023-04-16T11:57:57.949Z,101238.50
2023-04-16T12:00:25.082Z,101236.06
2023-04-16T12:02:58.971Z,101236.19
2023-04-16T12:05:38.902Z,101231.03
2023-04-16T12:08:10.611Z,101236.16
2023-04-16T12:10:58.389Z,101236.13
2023-04-16T12:13:25.067Z,101233.53
2023-04-16T12:15:54.006Z,101241.63
2023-04-16T12:18:23.040Z,101247.75
2023-04-16T12:20:53.424Z,101240.84
2023-04-16T12:23:23.577Z,101246.00
2023-04-16T12:25:52.083Z,101246.84
2023-04-16T12:28:38.337Z,101246.19
2023-04-16T12:31:08.576Z,101245.22
2023-04-16T12:33:35.562Z,101243.69
2023-04-16T12:36:17.405Z,101247.13
2023-04-16T12:38:44.201Z,101256.06
2023-04-16T12:41:10.914Z,101252.47
2023-04-16T12:43:37.650Z,101259.44
2023-04-16T12:46:04.905Z,101248.78
2023-04-16T12:48:32.661Z,101246.03
2023-04-16T12:50:59.427Z,101252.41
2023-04-16T12:53:26.209Z,101254.97
2023-04-16T12:55:53.212Z,101249.72
2023-04-16T12:58:19.920Z,101254.31
2023-04-16T13:00:46.627Z,101246.28
2023-04-16T13:03:13.594Z,101258.59
2023-04-16T13:05:40.634Z,101256.03
2023-04-16T13:08:07.358Z,101253.41
2023-04-16T13:10:35.162Z,101257.69
2023-04-16T13:13:01.855Z,101256.78
2023-04-16T13:15:28.964Z,101254.59
2023-04-16T13:17:55.867Z,101258.81
2023-04-16T13:20:24.401Z,101252.78
2023-04-16T13:22:51.500Z,101260.75
2023-04-16T13:25:18.223Z,101260.63
2023-04-16T13:27:44.942Z,101258.09
2023-04-16T13:30:12.026Z,101257.94
2023-04-16T13:32:38.771Z,101257.94
2023-04-16T13:35:06.146Z,101261.72
2023-04-16T13:37:33.173Z,101260.16
2023-04-16T13:39:59.926Z,101266.25
2023-04-16T13:42:26.874Z,101265.22
2023-04-16T13:44:55.069Z,101262.75
2023-04-16T13:47:22.127Z,101261.91
2023-04-16T13:49:49.027Z,101269.19
2023-04-16T13:52:15.666Z,101270.81
2023-04-16T13:54:42.829Z,101267.00
2023-04-16T13:57:09.733Z,101267.91
2023-04-16T13:59:36.454Z,101267.03
2023-04-16T14:02:03.653Z,101266.19
2023-04-16T14:04:30.570Z,101270.75
2023-04-16T14:06:57.395Z,101268.78
2023-04-16T14:09:24.508Z,101269.81
2023-04-16T14:11:52.498Z,101273.31
2023-04-16T14:14:21.612Z,101277.81
2023-04-16T14:16:48.348Z,101280.47
2023-04-16T14:19:15.198Z,101277.84
2023-04-16T14:21:41.834Z,101278.06
2023-04-16T14:24:09.248Z,101278.75
2023-04-16T14:26:35.987Z,101276.06
2023-04-16T14:29:02.643Z,101287.59
2023-04-16T14:31:29.282Z,101287.84
2023-04-16T14:33:56.071Z,101289.56
2023-04-16T14:36:22.732Z,101285.28
2023-04-16T14:38:49.434Z,101287.09
2023-04-16T14:41:16.159Z,101294.94
2023-04-16T14:43:44.438Z,101288.97
2023-04-16T14:46:11.108Z,101289.84
2023-04-16T14:48:38.989Z,101296.03
2023-04-16T14:51:07.240Z,101293.38
2023-04-16T14:53:34.454Z,101302.03
2023-04-16T14:56:01.705Z,101300.31
2023-04-16T14:58:28.546Z,101299.53
2023-04-16T15:00:55.586Z,101303.84
2023-04-16T15:03:22.593Z,101304.69
2023-04-16T15:05:55.462Z,101302.16
2023-04-16T15:08:23.241Z,101315.41
2023-04-16T15:10:51.185Z,101315.38
2023-04-16T15:13:18.202Z,101319.78
2023-04-16T15:15:45.051Z,101321.53
2023-04-16T15:18:11.772Z,101313.75
2023-04-16T15:20:38.685Z,101318.03
2023-04-16T15:23:05.378Z,101321.53
2023-04-16T15:25:32.532Z,101332.09
2023-04-16T15:27:59.580Z,101326.06
2023-04-16T15:30:26.505Z,101324.28
2023-04-16T15:32:55.053Z,101326.94
2023-04-16T15:35:22.038Z,101330.44
2023-04-16T15:37:48.947Z,101331.38
2023-04-16T15:40:18.730Z,101327.03
2023-04-16T15:42:45.662Z,101339.34
2023-04-16T15:45:12.345Z,101334.09
2023-04-16T15:47:41.489Z,101340.38
2023-04-16T15:50:08.778Z,101340.38
2023-04-16T15:52:36.365Z,101343.81
2023-04-16T15:55:04.354Z,101342.09
2023-04-16T15:57:31.414Z,101348.25
2023-04-16T16:00:05.786Z,101359.66
2023-04-16T16:02:33.812Z,101356.09
2023-04-16T16:05:00.975Z,101358.81
2023-04-16T16:07:27.640Z,101356.97
2023-04-16T16:09:54.292Z,101364.06
2023-04-16T16:12:20.920Z,101365.81
2023-04-16T16:14:47.784Z,101357.84
2023-04-16T16:17:14.433Z,101365.78
2023-04-16T16:19:41.197Z,101363.13
2023-04-16T16:22:09.665Z,101367.53
2023-04-16T16:24:36.279Z,101379.09
2023-04-16T16:27:02.993Z,101373.84
2023-04-16T16:29:29.674Z,101377.38
2023-04-16T16:31:56.497Z,101375.63
2023-04-16T16:34:23.188Z,101380.97
2023-04-16T16:36:49.935Z,101373.88
2023-04-16T16:39:16.558Z,101382.66
2023-04-16T16:41:43.231Z,101380.13
2023-04-16T16:44:10.356Z,101384.50
2023-04-16T16:46:37.294Z,101384.53
2023-04-16T16:49:06.039Z,101381.94
2023-04-16T16:51:34.003Z,101385.41
2023-04-16T16:54:00.732Z,101382.81
2023-04-16T16:56:28.004Z,101387.22
2023-04-16T16:58:54.727Z,101392.47
2023-04-16T17:01:21.373Z,101386.38
2023-04-16T17:03:48.115Z,101393.41
2023-04-16T17:06:14.941Z,101392.53
2023-04-16T17:08:41.818Z,101393.44
2023-04-16T17:11:08.619Z,101395.19
2023-04-16T17:13:35.558Z,101406.59
2023-04-16T17:16:02.428Z,101396.06
2023-04-16T17:18:29.326Z,101410.13
2023-04-16T17:20:56.153Z,101402.22
2023-04-16T17:23:22.902Z,101406.63
2023-04-16T17:25:49.835Z,101410.13
2023-04-16T17:28:16.504Z,101418.94
2023-04-16T17:30:43.274Z,101417.19
2023-04-16T17:33:10.052Z,101423.31
2023-04-16T17:35:36.692Z,101422.44
2023-04-16T17:38:03.298Z,101425.94
2023-04-16T17:40:29.899Z,101424.22
2023-04-16T17:42:56.554Z,101431.22
2023-04-16T17:45:23.312Z,101430.34
2023-04-16T17:47:50.011Z,101434.75
2023-04-16T17:50:16.715Z,101438.25
2023-04-16T17:52:43.774Z,101433.88
2023-04-16T17:55:11.157Z,101440.00
2023-04-16T17:57:37.848Z,101443.50
2023-04-16T18:00:14.426Z,101444.41
2023-04-16T18:02:41.485Z,101449.59
2023-04-16T18:05:08.920Z,101451.34
2023-04-16T18:07:36.553Z,101457.53
2023-04-16T18:10:03.320Z,101460.16
2023-04-16T18:12:29.995Z,101465.44
2023-04-16T18:14:56.670Z,101467.19
2023-04-16T18:17:23.504Z,101472.47
2023-04-16T18:19:50.536Z,101479.47
2023-04-16T18:22:17.253Z,101470.75
2023-04-16T18:24:43.872Z,101476.00
2023-04-16T18:27:10.567Z,101484.78
2023-04-16T18:29:39.687Z,101482.94
2023-04-16T18:32:09.907Z,101483.84
2023-04-16T18:34:38.555Z,101489.97
2023-04-16T18:37:05.344Z,101484.72
2023-04-16T18:39:35.890Z,101490.84
2023-04-16T18:42:03.823Z,101497.88
2023-04-16T18:44:30.881Z,101503.09
2023-04-16T18:46:57.770Z,101506.66
2023-04-16T18:49:24.943Z,101512.72
2023-04-16T18:51:51.771Z,101508.28
2023-04-16T18:54:19.911Z,101518.84
2023-04-16T18:56:46.557Z,101512.72
2023-04-16T18:59:13.652Z,101523.22
2023-04-16T19:01:40.459Z,101518.78
2023-04-16T19:04:07.132Z,101516.19
2023-04-16T19:06:33.815Z,101522.31
2023-04-16T19:09:00.526Z,101521.47
2023-04-16T19:11:27.222Z,101521.47
2023-04-16T19:13:54.003Z,101524.06
2023-04-16T19:16:20.949Z,101525.84
2023-04-16T19:18:47.605Z,101529.34
2023-04-16T19:21:14.466Z,101530.22
2023-04-16T19:23:41.208Z,101532.81
2023-04-16T19:26:07.822Z,101539.81
2023-04-16T19:28:34.536Z,101537.22
2023-04-16T19:31:01.350Z,101527.53
2023-04-16T19:33:28.172Z,101532.84
2023-04-16T19:35:54.889Z,101537.16
2023-04-16T19:38:21.487Z,101538.06
2023-04-16T19:40:48.891Z,101535.41
2023-04-16T19:43:15.747Z,101538.03
2023-04-16T19:45:52.542Z,101535.41
2023-04-16T19:48:19.970Z,101532.75
2023-04-16T19:50:46.770Z,101534.53
2023-04-16T19:53:13.378Z,101534.47
2023-04-16T19:55:41.261Z,101539.75
2023-04-16T19:58:09.459Z,101538.00
2023-04-16T20:00:37.291Z,101544.13
2023-04-16T20:03:04.864Z,101537.06
2023-04-16T20:05:31.615Z,101542.38
2023-04-16T20:07:58.278Z,101536.22
2023-04-16T20:10:26.467Z,101543.28
2023-04-16T20:12:53.351Z,101543.19
2023-04-16T20:15:20.078Z,101544.94
2023-04-16T20:17:46.774Z,101539.69
2023-04-16T20:20:15.763Z,101547.53
2023-04-16T20:22:43.382Z,101542.28
2023-04-16T20:25:10.148Z,101551.09
2023-04-16T20:27:36.832Z,101544.91
2023-04-16T20:30:05.507Z,101549.28
2023-04-16T20:32:32.389Z,101544.91
2023-04-16T20:34:59.731Z,101551.03
2023-04-16T20:37:26.322Z,101550.94
2023-04-16T20:39:54.157Z,101556.94
2023-04-16T20:42:22.733Z,101564.88
2023-04-16T20:44:50.601Z,101563.19
2023-04-16T20:47:17.373Z,101564.06
2023-04-16T20:49:46.992Z,101564.13
2023-04-16T20:52:14.276Z,101564.13
2023-04-16T20:54:40.945Z,101565.78
2023-04-16T20:57:07.648Z,101572.81
2023-04-16T20:59:34.387Z,101566.66
2023-04-16T21:02:01.054Z,101569.31
2023-04-16T21:04:27.871Z,101573.66
2023-04-16T21:06:55.038Z,101580.59
2023-04-16T21:09:21.849Z,101579.72
2023-04-16T21:11:48.618Z,101577.13
2023-04-16T21:14:15.508Z,101579.78
2023-04-16T21:16:42.169Z,101583.97
2023-04-16T21:19:09.089Z,101578.78
2023-04-16T21:21:36.549Z,101579.59
2023-04-16T21:24:03.316Z,101583.91
2023-04-16T21:26:29.951Z,101582.97
2023-04-16T21:28:56.618Z,101583.78
2023-04-16T21:31:23.410Z,101582.06
2023-04-16T21:33:50.130Z,101585.63
2023-04-16T21:36:19.469Z,101585.56
2023-04-16T21:38:46.102Z,101583.88
2023-04-16T21:41:15.464Z,101583.00
2023-04-16T21:43:42.083Z,101579.47
2023-04-16T21:46:08.739Z,101589.13
2023-04-16T21:48:35.527Z,101580.34
2023-04-16T21:51:06.585Z,101579.50
2023-04-16T21:53:34.017Z,101579.44
2023-04-16T21:56:00.728Z,101585.56
2023-04-16T21:58:27.344Z,101579.41
2023-04-16T22:00:54.247Z,101584.69
2023-04-16T22:03:28.155Z,101586.47
2023-04-16T22:06:02.564Z,101580.28
2023-04-16T22:08:29.241Z,101589.84
2023-04-16T22:10:59.945Z,101586.31
2023-04-16T22:13:27.873Z,101576.72
2023-04-16T22:15:55.186Z,101583.63
2023-04-16T22:18:24.331Z,101588.88
2023-04-16T22:20:55.002Z,101594.13
2023-04-16T22:23:22.986Z,101598.50
2023-04-16T22:25:49.620Z,101592.38
2023-04-16T22:28:16.288Z,101587.94
2023-04-16T22:30:42.941Z,101595.69
2023-04-16T22:33:09.580Z,101593.88
2023-04-16T22:35:36.250Z,101596.41
2023-04-16T22:38:02.863Z,101600.09
2023-04-16T22:40:32.516Z,101598.34
2023-04-16T22:42:59.174Z,101593.09
2023-04-16T22:45:26.137Z,101599.03
2023-04-16T22:47:52.905Z,101598.16
2023-04-16T22:50:19.708Z,101597.22
2023-04-16T22:52:46.349Z,101598.13
2023-04-16T22:55:13.060Z,101592.88
2023-04-16T22:57:39.816Z,101595.59
2023-04-16T23:00:09.864Z,101594.63
2023-04-16T23:02:39.780Z,101598.91
2023-04-16T23:05:06.890Z,101591.94
2023-04-16T23:07:34.109Z,101593.69
2023-04-16T23:10:00.763Z,101598.13
2023-04-16T23:12:27.368Z,101597.22
2023-04-16T23:14:54.207Z,101595.31
2023-04-16T23:17:21.109Z,101587.47
2023-04-16T23:19:47.766Z,101592.66
2023-04-16T23:22:14.370Z,101597.03
2023-04-16T23:24:41.380Z,101595.44
2023-04-16T23:27:08.283Z,101590.94
2023-04-16T23:29:35.086Z,101596.31
2023-04-16T23:32:03.109Z,101593.47
2023-04-16T23:34:29.808Z,101604.03
2023-04-16T23:36:56.465Z,101596.06
2023-04-16T23:39:23.140Z,101588.19
2023-04-16T23:41:49.833Z,101594.34
2023-04-16T23:44:16.510Z,101591.63
2023-04-16T23:46:43.207Z,101600.38
2023-04-16T23:49:10.143Z,101596.06
2023-04-16T23:51:37.043Z,101592.56
2023-04-16T23:54:03.751Z,101592.69
2023-04-16T23:56:30.360Z,101603.81
2023-04-16T23:58:57.098Z,101597.75
